Pageville, Pennsylvania
Current Conditions -  °F | °C
As of 2:53 PM on Monday 24 Nov 2014 (Local Time) from KHZY Reporting Station
Broken Clouds Broken Clouds  
Wind Chill: 60°   Ceiling: 7000
Heat Index: 60°   Visibility: 10mi
Dew Point: 46°   Wind: 30mph
Humidity: 60%   Direction: 220°SW
Pressure: 29.36"   Gusts: 45mph
Location:  41.8831°N, 80.4041°W
Report Text: KHZY 241953Z AUTO 22026G39KT 10SM SCT046 BKN070 16/08 A2936 RMK AO2 PK WND 24039/1944 RAE07 SLP937 P0000 T01560078 $
Loading
Personal Weather Stations






























Interactive Weather Map New forecast layout! Learn more

10-Day Weather Forecast

Advertisements
Track Severe Weather on mobile